sensor_id;sensor_type;location;lat;lon;timestamp;pressure;altitude;pressure_sealevel;temperature;humidity
66664;BME280;59683;51.428;-1.994;2024-01-25T00:00:31;102111.22;;;0.98;100.00
66664;BME280;59683;51.428;-1.994;2024-01-25T00:02:56;102121.66;;;0.98;100.00
66664;BME280;59683;51.428;-1.994;2024-01-25T00:05:21;102109.53;;;0.94;100.00
66664;BME280;59683;51.428;-1.994;2024-01-25T00:07:47;102107.03;;;0.88;100.00
66664;BME280;59683;51.428;-1.994;2024-01-25T00:10:13;102114.91;;;0.85;100.00
66664;BME280;59683;51.428;-1.994;2024-01-25T00:12:40;102109.72;;;0.82;100.00
66664;BME280;59683;51.428;-1.994;2024-01-25T00:15:05;102109.88;;;0.72;100.00
66664;BME280;59683;51.428;-1.994;2024-01-25T00:17:30;102109.09;;;0.66;100.00
66664;BME280;59683;51.428;-1.994;2024-01-25T00:19:56;102107.34;;;0.66;100.00
66664;BME280;59683;51.428;-1.994;2024-01-25T00:22:21;102104.78;;;0.63;100.00
66664;BME280;59683;51.428;-1.994;2024-01-25T00:24:47;102103.97;;;0.60;100.00
66664;BME280;59683;51.428;-1.994;2024-01-25T00:27:12;102105.78;;;0.55;100.00
66664;BME280;59683;51.428;-1.994;2024-01-25T00:29:37;102109.28;;;0.52;100.00
66664;BME280;59683;51.428;-1.994;2024-01-25T00:32:03;102108.44;;;0.53;100.00
66664;BME280;59683;51.428;-1.994;2024-01-25T00:34:28;102101.50;;;0.51;100.00
66664;BME280;59683;51.428;-1.994;2024-01-25T00:36:54;102101.53;;;0.47;100.00
66664;BME280;59683;51.428;-1.994;2024-01-25T00:39:20;102102.44;;;0.45;100.00
66664;BME280;59683;51.428;-1.994;2024-01-25T00:41:51;102103.22;;;0.53;100.00
66664;BME280;59683;51.428;-1.994;2024-01-25T00:44:17;102104.72;;;0.69;100.00
66664;BME280;59683;51.428;-1.994;2024-01-25T00:46:42;102110.50;;;0.88;100.00
66664;BME280;59683;51.428;-1.994;2024-01-25T00:49:08;102106.41;;;1.26;100.00
66664;BME280;59683;51.428;-1.994;2024-01-25T00:51:35;102109.03;;;1.74;100.00
66664;BME280;59683;51.428;-1.994;2024-01-25T00:54:01;102111.41;;;2.28;100.00
66664;BME280;59683;51.428;-1.994;2024-01-25T00:56:27;102109.88;;;2.60;100.00
66664;BME280;59683;51.428;-1.994;2024-01-25T00:58:53;102110.13;;;2.85;100.00
66664;BME280;59683;51.428;-1.994;2024-01-25T01:01:21;102112.31;;;3.03;100.00
66664;BME280;59683;51.428;-1.994;2024-01-25T01:03:46;102111.22;;;3.13;100.00
66664;BME280;59683;51.428;-1.994;2024-01-25T01:06:19;102110.16;;;3.21;100.00
66664;BME280;59683;51.428;-1.994;2024-01-25T01:08:44;102107.47;;;3.24;100.00
66664;BME280;59683;51.428;-1.994;2024-01-25T01:11:10;102109.78;;;3.36;100.00
66664;BME280;59683;51.428;-1.994;2024-01-25T01:13:35;102099.13;;;3.42;100.00
66664;BME280;59683;51.428;-1.994;2024-01-25T01:16:00;102096.41;;;3.47;100.00
66664;BME280;59683;51.428;-1.994;2024-01-25T01:18:26;102089.16;;;3.56;100.00
66664;BME280;59683;51.428;-1.994;2024-01-25T01:20:51;102075.69;;;3.70;100.00
66664;BME280;59683;51.428;-1.994;2024-01-25T01:23:16;102084.75;;;3.89;100.00
66664;BME280;59683;51.428;-1.994;2024-01-25T01:25:42;102085.09;;;4.08;100.00
66664;BME280;59683;51.428;-1.994;2024-01-25T01:28:07;102082.94;;;4.23;100.00
66664;BME280;59683;51.428;-1.994;2024-01-25T01:30:32;102077.38;;;4.33;100.00
66664;BME280;59683;51.428;-1.994;2024-01-25T01:32:58;102078.84;;;4.42;100.00
66664;BME280;59683;51.428;-1.994;2024-01-25T01:35:23;102070.59;;;4.54;100.00
66664;BME280;59683;51.428;-1.994;2024-01-25T01:37:48;102070.25;;;4.65;100.00
66664;BME280;59683;51.428;-1.994;2024-01-25T01:40:14;102055.28;;;4.69;100.00
66664;BME280;59683;51.428;-1.994;2024-01-25T01:42:39;102054.28;;;4.73;100.00
66664;BME280;59683;51.428;-1.994;2024-01-25T01:45:05;102051.66;;;4.73;100.00
66664;BME280;59683;51.428;-1.994;2024-01-25T01:47:31;102045.47;;;4.75;100.00
66664;BME280;59683;51.428;-1.994;2024-01-25T01:49:56;102039.25;;;4.78;100.00
66664;BME280;59683;51.428;-1.994;2024-01-25T01:52:22;102043.34;;;4.86;100.00
66664;BME280;59683;51.428;-1.994;2024-01-25T01:54:48;102044.50;;;5.04;100.00
66664;BME280;59683;51.428;-1.994;2024-01-25T01:57:13;102031.53;;;5.25;100.00
66664;BME280;59683;51.428;-1.994;2024-01-25T01:59:39;102022.28;;;5.40;100.00
66664;BME280;59683;51.428;-1.994;2024-01-25T02:02:04;102028.75;;;5.54;100.00
66664;BME280;59683;51.428;-1.994;2024-01-25T02:04:31;102037.94;;;5.66;100.00
66664;BME280;59683;51.428;-1.994;2024-01-25T02:06:56;102035.97;;;5.73;100.00
66664;BME280;59683;51.428;-1.994;2024-01-25T02:09:21;102029.63;;;5.78;100.00
66664;BME280;59683;51.428;-1.994;2024-01-25T02:11:47;102035.50;;;5.85;100.00
66664;BME280;59683;51.428;-1.994;2024-01-25T02:14:12;102037.91;;;5.91;100.00
66664;BME280;59683;51.428;-1.994;2024-01-25T02:16:38;102033.56;;;5.90;100.00
66664;BME280;59683;51.428;-1.994;2024-01-25T02:19:03;102022.84;;;5.96;100.00
66664;BME280;59683;51.428;-1.994;2024-01-25T02:21:29;102028.03;;;5.98;100.00
66664;BME280;59683;51.428;-1.994;2024-01-25T02:23:54;102023.47;;;6.03;100.00
66664;BME280;59683;51.428;-1.994;2024-01-25T02:26:19;102032.09;;;6.06;100.00
66664;BME280;59683;51.428;-1.994;2024-01-25T02:28:45;102039.00;;;6.09;100.00
66664;BME280;59683;51.428;-1.994;2024-01-25T02:31:10;102027.47;;;6.13;100.00
66664;BME280;59683;51.428;-1.994;2024-01-25T02:33:35;102033.34;;;6.20;100.00
66664;BME280;59683;51.428;-1.994;2024-01-25T02:36:01;102022.53;;;6.27;100.00
66664;BME280;59683;51.428;-1.994;2024-01-25T02:38:26;102006.69;;;6.29;100.00
66664;BME280;59683;51.428;-1.994;2024-01-25T02:40:52;102004.19;;;6.26;100.00
66664;BME280;59683;51.428;-1.994;2024-01-25T02:43:19;101998.94;;;6.26;100.00
66664;BME280;59683;51.428;-1.994;2024-01-25T02:45:44;101981.44;;;6.25;100.00
66664;BME280;59683;51.428;-1.994;2024-01-25T02:48:10;101988.50;;;6.24;100.00
66664;BME280;59683;51.428;-1.994;2024-01-25T02:50:35;101984.09;;;6.25;100.00
66664;BME280;59683;51.428;-1.994;2024-01-25T02:53:01;101979.59;;;6.27;100.00
66664;BME280;59683;51.428;-1.994;2024-01-25T02:55:27;101981.44;;;6.25;100.00
66664;BME280;59683;51.428;-1.994;2024-01-25T02:57:53;101974.59;;;6.21;100.00
66664;BME280;59683;51.428;-1.994;2024-01-25T03:00:18;101970.31;;;6.18;100.00
66664;BME280;59683;51.428;-1.994;2024-01-25T03:02:43;101966.03;;;6.16;100.00
66664;BME280;59683;51.428;-1.994;2024-01-25T03:05:09;101952.88;;;6.16;100.00
66664;BME280;59683;51.428;-1.994;2024-01-25T03:07:34;101957.22;;;6.17;100.00
66664;BME280;59683;51.428;-1.994;2024-01-25T03:10:00;101955.59;;;6.14;100.00
66664;BME280;59683;51.428;-1.994;2024-01-25T03:12:26;101954.72;;;6.14;100.00
66664;BME280;59683;51.428;-1.994;2024-01-25T03:14:51;101952.84;;;6.17;100.00
66664;BME280;59683;51.428;-1.994;2024-01-25T03:17:16;101946.69;;;6.17;100.00
66664;BME280;59683;51.428;-1.994;2024-01-25T03:19:42;101936.19;;;6.17;100.00
66664;BME280;59683;51.428;-1.994;2024-01-25T03:22:07;101934.44;;;6.17;100.00
66664;BME280;59683;51.428;-1.994;2024-01-25T03:24:32;101926.47;;;6.19;100.00
66664;BME280;59683;51.428;-1.994;2024-01-25T03:26:58;101928.97;;;6.22;100.00
66664;BME280;59683;51.428;-1.994;2024-01-25T03:29:23;101929.84;;;6.22;100.00
66664;BME280;59683;51.428;-1.994;2024-01-25T03:31:48;101925.31;;;6.26;100.00
66664;BME280;59683;51.428;-1.994;2024-01-25T03:34:15;101921.75;;;6.27;100.00
66664;BME280;59683;51.428;-1.994;2024-01-25T03:36:40;101917.41;;;6.26;100.00
66664;BME280;59683;51.428;-1.994;2024-01-25T03:39:06;101915.63;;;6.26;100.00
66664;BME280;59683;51.428;-1.994;2024-01-25T03:41:32;101905.00;;;6.29;100.00
66664;BME280;59683;51.428;-1.994;2024-01-25T03:43:57;101901.44;;;6.30;100.00
66664;BME280;59683;51.428;-1.994;2024-01-25T03:46:23;101904.81;;;6.34;100.00
66664;BME280;59683;51.428;-1.994;2024-01-25T03:48:48;101895.81;;;6.40;100.00
66664;BME280;59683;51.428;-1.994;2024-01-25T03:51:13;101895.63;;;6.44;100.00
66664;BME280;59683;51.428;-1.994;2024-01-25T03:53:39;101892.59;;;6.53;100.00
66664;BME280;59683;51.428;-1.994;2024-01-25T03:56:10;101881.81;;;6.60;100.00
66664;BME280;59683;51.428;-1.994;2024-01-25T03:58:36;101882.34;;;6.68;100.00
66664;BME280;59683;51.428;-1.994;2024-01-25T04:01:02;101879.59;;;6.71;100.00
66664;BME280;59683;51.428;-1.994;2024-01-25T04:03:28;101884.72;;;6.74;100.00
66664;BME280;59683;51.428;-1.994;2024-01-25T04:05:53;101867.06;;;6.76;100.00
66664;BME280;59683;51.428;-1.994;2024-01-25T04:08:18;101860.72;;;6.81;100.00
66664;BME280;59683;51.428;-1.994;2024-01-25T04:10:44;101859.69;;;6.84;100.00
66664;BME280;59683;51.428;-1.994;2024-01-25T04:13:09;101858.63;;;6.88;100.00
66664;BME280;59683;51.428;-1.994;2024-01-25T04:15:35;101853.91;;;6.96;100.00
66664;BME280;59683;51.428;-1.994;2024-01-25T04:18:00;101853.63;;;7.02;100.00
66664;BME280;59683;51.428;-1.994;2024-01-25T04:20:25;101865.53;;;7.11;100.00
66664;BME280;59683;51.428;-1.994;2024-01-25T04:22:51;101865.31;;;7.16;100.00
66664;BME280;59683;51.428;-1.994;2024-01-25T04:25:17;101856.41;;;7.18;100.00
66664;BME280;59683;51.428;-1.994;2024-01-25T04:27:42;101853.78;;;7.18;100.00
66664;BME280;59683;51.428;-1.994;2024-01-25T04:30:08;101845.09;;;7.16;100.00
66664;BME280;59683;51.428;-1.994;2024-01-25T04:32:33;101846.75;;;7.19;100.00
66664;BME280;59683;51.428;-1.994;2024-01-25T04:34:59;101846.66;;;7.20;100.00
66664;BME280;59683;51.428;-1.994;2024-01-25T04:37:24;101839.47;;;7.24;100.00
66664;BME280;59683;51.428;-1.994;2024-01-25T04:39:50;101850.81;;;7.26;100.00
66664;BME280;59683;51.428;-1.994;2024-01-25T04:42:15;101843.59;;;7.29;100.00
66664;BME280;59683;51.428;-1.994;2024-01-25T04:44:41;101849.56;;;7.33;100.00
66664;BME280;59683;51.428;-1.994;2024-01-25T04:47:06;101848.53;;;7.37;100.00
66664;BME280;59683;51.428;-1.994;2024-01-25T04:49:31;101838.53;;;7.44;100.00
66664;BME280;59683;51.428;-1.994;2024-01-25T04:51:57;101834.00;;;7.47;100.00
66664;BME280;59683;51.428;-1.994;2024-01-25T04:54:22;101835.97;;;7.61;100.00
66664;BME280;59683;51.428;-1.994;2024-01-25T04:56:47;101830.63;;;7.63;100.00
66664;BME280;59683;51.428;-1.994;2024-01-25T04:59:13;101828.66;;;7.68;100.00
66664;BME280;59683;51.428;-1.994;2024-01-25T05:01:38;101834.75;;;7.68;100.00
66664;BME280;59683;51.428;-1.994;2024-01-25T05:04:04;101832.97;;;7.69;100.00
66664;BME280;59683;51.428;-1.994;2024-01-25T05:06:29;101843.28;;;7.73;100.00
66664;BME280;59683;51.428;-1.994;2024-01-25T05:08:54;101838.69;;;7.78;100.00
66664;BME280;59683;51.428;-1.994;2024-01-25T05:11:20;101838.59;;;7.80;100.00
66664;BME280;59683;51.428;-1.994;2024-01-25T05:13:45;101834.97;;;7.83;100.00
66664;BME280;59683;51.428;-1.994;2024-01-25T05:16:11;101839.16;;;7.87;100.00
66664;BME280;59683;51.428;-1.994;2024-01-25T05:18:36;101830.00;;;7.94;100.00
66664;BME280;59683;51.428;-1.994;2024-01-25T05:21:02;101818.44;;;7.96;100.00
66664;BME280;59683;51.428;-1.994;2024-01-25T05:23:27;101811.31;;;7.98;100.00
66664;BME280;59683;51.428;-1.994;2024-01-25T05:25:52;101801.53;;;8.00;100.00
66664;BME280;59683;51.428;-1.994;2024-01-25T05:28:18;101795.28;;;8.03;100.00
66664;BME280;59683;51.428;-1.994;2024-01-25T05:30:43;101796.28;;;8.00;100.00
66664;BME280;59683;51.428;-1.994;2024-01-25T05:33:09;101807.31;;;8.09;100.00
66664;BME280;59683;51.428;-1.994;2024-01-25T05:35:34;101813.25;;;8.12;100.00
66664;BME280;59683;51.428;-1.994;2024-01-25T05:38:00;101804.69;;;8.09;100.00
66664;BME280;59683;51.428;-1.994;2024-01-25T05:40:25;101807.22;;;8.10;100.00
66664;BME280;59683;51.428;-1.994;2024-01-25T05:42:51;101806.44;;;8.08;100.00
66664;BME280;59683;51.428;-1.994;2024-01-25T05:45:16;101801.84;;;8.12;100.00
66664;BME280;59683;51.428;-1.994;2024-01-25T05:47:45;101798.91;;;8.18;100.00
66664;BME280;59683;51.428;-1.994;2024-01-25T05:50:10;101799.38;;;8.26;100.00
66664;BME280;59683;51.428;-1.994;2024-01-25T05:52:36;101806.28;;;8.28;100.00
66664;BME280;59683;51.428;-1.994;2024-01-25T05:55:05;101802.97;;;8.42;100.00
66664;BME280;59683;51.428;-1.994;2024-01-25T05:57:32;101804.44;;;8.48;100.00
66664;BME280;59683;51.428;-1.994;2024-01-25T05:59:57;101799.97;;;8.50;100.00
66664;BME280;59683;51.428;-1.994;2024-01-25T06:02:23;101799.06;;;8.49;100.00
66664;BME280;59683;51.428;-1.994;2024-01-25T06:04:48;101798.16;;;8.50;100.00
66664;BME280;59683;51.428;-1.994;2024-01-25T06:07:13;101787.63;;;8.50;100.00
66664;BME280;59683;51.428;-1.994;2024-01-25T06:09:39;101787.50;;;8.52;100.00
66664;BME280;59683;51.428;-1.994;2024-01-25T06:12:04;101793.66;;;8.52;100.00
66664;BME280;59683;51.428;-1.994;2024-01-25T06:14:30;101793.59;;;8.54;100.00
66664;BME280;59683;51.428;-1.994;2024-01-25T06:16:56;101793.50;;;8.56;100.00
66664;BME280;59683;51.428;-1.994;2024-01-25T06:19:21;101790.75;;;8.57;100.00
66664;BME280;59683;51.428;-1.994;2024-01-25T06:21:47;101775.97;;;8.55;100.00
66664;BME280;59683;51.428;-1.994;2024-01-25T06:24:12;101773.22;;;8.56;100.00
66664;BME280;59683;51.428;-1.994;2024-01-25T06:26:38;101784.88;;;8.52;100.00
66664;BME280;59683;51.428;-1.994;2024-01-25T06:29:04;101783.09;;;8.52;100.00
66664;BME280;59683;51.428;-1.994;2024-01-25T06:31:29;101777.91;;;8.51;100.00
66664;BME280;59683;51.428;-1.994;2024-01-25T06:33:55;101797.75;;;8.58;100.00
66664;BME280;59683;51.428;-1.994;2024-01-25T06:36:20;101781.16;;;8.56;100.00
66664;BME280;59683;51.428;-1.994;2024-01-25T06:38:45;101775.03;;;8.56;100.00
66664;BME280;59683;51.428;-1.994;2024-01-25T06:41:11;101779.34;;;8.57;100.00
66664;BME280;59683;51.428;-1.994;2024-01-25T06:43:36;101763.47;;;8.58;100.00
66664;BME280;59683;51.428;-1.994;2024-01-25T06:46:02;101761.66;;;8.59;100.00
66664;BME280;59683;51.428;-1.994;2024-01-25T06:48:27;101758.00;;;8.61;100.00
66664;BME280;59683;51.428;-1.994;2024-01-25T06:50:53;101764.91;;;8.64;100.00
66664;BME280;59683;51.428;-1.994;2024-01-25T06:53:19;101771.56;;;8.71;100.00
66664;BME280;59683;51.428;-1.994;2024-01-25T06:55:44;101772.94;;;8.78;100.00
66664;BME280;59683;51.428;-1.994;2024-01-25T06:58:10;101771.94;;;8.81;100.00
66664;BME280;59683;51.428;-1.994;2024-01-25T07:00:35;101766.66;;;8.81;100.00
66664;BME280;59683;51.428;-1.994;2024-01-25T07:03:00;101757.19;;;8.77;100.00
66664;BME280;59683;51.428;-1.994;2024-01-25T07:05:26;101747.81;;;8.71;100.00
66664;BME280;59683;51.428;-1.994;2024-01-25T07:07:52;101739.13;;;8.69;100.00
66664;BME280;59683;51.428;-1.994;2024-01-25T07:10:17;101740.22;;;8.65;100.00
66664;BME280;59683;51.428;-1.994;2024-01-25T07:12:43;101745.59;;;8.63;100.00
66664;BME280;59683;51.428;-1.994;2024-01-25T07:15:08;101747.53;;;8.60;100.00
66664;BME280;59683;51.428;-1.994;2024-01-25T07:17:34;101742.25;;;8.60;100.00
66664;BME280;59683;51.428;-1.994;2024-01-25T07:19:59;101741.41;;;8.59;100.00
66664;BME280;59683;51.428;-1.994;2024-01-25T07:22:24;101736.97;;;8.60;100.00
66664;BME280;59683;51.428;-1.994;2024-01-25T07:24:50;101735.03;;;8.63;100.00
66664;BME280;59683;51.428;-1.994;2024-01-25T07:27:15;101737.66;;;8.63;100.00
66664;BME280;59683;51.428;-1.994;2024-01-25T07:29:43;101736.66;;;8.66;100.00
66664;BME280;59683;51.428;-1.994;2024-01-25T07:32:09;101743.13;;;8.76;100.00
66664;BME280;59683;51.428;-1.994;2024-01-25T07:34:35;101731.50;;;8.80;100.00
66664;BME280;59683;51.428;-1.994;2024-01-25T07:37:00;101734.63;;;8.87;100.00
66664;BME280;59683;51.428;-1.994;2024-01-25T07:39:25;101736.00;;;8.94;100.00
66664;BME280;59683;51.428;-1.994;2024-01-25T07:41:51;101728.84;;;8.96;100.00
66664;BME280;59683;51.428;-1.994;2024-01-25T07:44:16;101727.81;;;8.98;100.00
66664;BME280;59683;51.428;-1.994;2024-01-25T07:46:43;101730.28;;;9.02;100.00
66664;BME280;59683;51.428;-1.994;2024-01-25T07:49:08;101715.50;;;8.99;100.00
66664;BME280;59683;51.428;-1.994;2024-01-25T07:51:33;101709.44;;;8.97;100.00
66664;BME280;59683;51.428;-1.994;2024-01-25T07:53:59;101711.66;;;8.89;100.00
66664;BME280;59683;51.428;-1.994;2024-01-25T07:56:24;101724.00;;;8.88;100.00
66664;BME280;59683;51.428;-1.994;2024-01-25T07:58:49;101727.56;;;8.87;100.00
66664;BME280;59683;51.428;-1.994;2024-01-25T08:01:18;101728.19;;;8.92;100.00
66664;BME280;59683;51.428;-1.994;2024-01-25T08:03:44;101729.78;;;8.95;100.00
66664;BME280;59683;51.428;-1.994;2024-01-25T08:06:09;101718.31;;;8.96;100.00
66664;BME280;59683;51.428;-1.994;2024-01-25T08:08:35;101725.13;;;9.00;100.00
66664;BME280;59683;51.428;-1.994;2024-01-25T08:11:00;101728.69;;;8.99;100.00
66664;BME280;59683;51.428;-1.994;2024-01-25T08:13:26;101729.53;;;8.99;100.00
66664;BME280;59683;51.428;-1.994;2024-01-25T08:15:53;101728.69;;;8.99;100.00
66664;BME280;59683;51.428;-1.994;2024-01-25T08:18:18;101731.25;;;9.00;100.00
66664;BME280;59683;51.428;-1.994;2024-01-25T08:20:44;101726.13;;;8.97;100.00
66664;BME280;59683;51.428;-1.994;2024-01-25T08:23:10;101730.56;;;8.97;100.00
66664;BME280;59683;51.428;-1.994;2024-01-25T08:25:35;101731.41;;;8.97;100.00
66664;BME280;59683;51.428;-1.994;2024-01-25T08:28:01;101726.97;;;8.98;100.00
66664;BME280;59683;51.428;-1.994;2024-01-25T08:30:26;101728.59;;;9.00;100.00
66664;BME280;59683;51.428;-1.994;2024-01-25T08:32:51;101738.22;;;9.02;100.00
66664;BME280;59683;51.428;-1.994;2024-01-25T08:35:17;101729.53;;;8.99;100.00
66664;BME280;59683;51.428;-1.994;2024-01-25T08:37:43;101737.38;;;9.01;100.00
66664;BME280;59683;51.428;-1.994;2024-01-25T08:40:09;101729.28;;;9.04;100.00
66664;BME280;59683;51.428;-1.994;2024-01-25T08:42:35;101740.69;;;9.05;100.00
66664;BME280;59683;51.428;-1.994;2024-01-25T08:45:00;101743.16;;;9.08;100.00
66664;BME280;59683;51.428;-1.994;2024-01-25T08:47:25;101735.16;;;9.09;100.00
66664;BME280;59683;51.428;-1.994;2024-01-25T08:49:51;101737.53;;;9.14;100.00
66664;BME280;59683;51.428;-1.994;2024-01-25T08:52:16;101733.88;;;9.16;100.00
66664;BME280;59683;51.428;-1.994;2024-01-25T08:54:42;101731.16;;;9.18;100.00
66664;BME280;59683;51.428;-1.994;2024-01-25T08:57:08;101738.16;;;9.19;100.00
66664;BME280;59683;51.428;-1.994;2024-01-25T08:59:34;101737.19;;;9.20;100.00
66664;BME280;59683;51.428;-1.994;2024-01-25T09:02:03;101739.56;;;9.24;100.00
66664;BME280;59683;51.428;-1.994;2024-01-25T09:04:29;101736.88;;;9.26;100.00
66664;BME280;59683;51.428;-1.994;2024-01-25T09:06:54;101731.41;;;9.29;100.00
66664;BME280;59683;51.428;-1.994;2024-01-25T09:09:20;101734.63;;;9.34;100.00
66664;BME280;59683;51.428;-1.994;2024-01-25T09:11:45;101740.59;;;9.38;100.00
66664;BME280;59683;51.428;-1.994;2024-01-25T09:14:10;101733.69;;;9.35;100.00
66664;BME280;59683;51.428;-1.994;2024-01-25T09:16:36;101734.38;;;9.39;100.00
66664;BME280;59683;51.428;-1.994;2024-01-25T09:19:03;101726.97;;;9.45;100.00
66664;BME280;59683;51.428;-1.994;2024-01-25T09:21:29;101731.41;;;9.45;100.00
66664;BME280;59683;51.428;-1.994;2024-01-25T09:23:54;101731.28;;;9.46;100.00
66664;BME280;59683;51.428;-1.994;2024-01-25T09:26:19;101730.19;;;9.51;100.00
66664;BME280;59683;51.428;-1.994;2024-01-25T09:28:45;101729.72;;;9.58;100.00
66664;BME280;59683;51.428;-1.994;2024-01-25T09:31:10;101726.75;;;9.64;100.00
66664;BME280;59683;51.428;-1.994;2024-01-25T09:33:35;101731.75;;;9.69;100.00
66664;BME280;59683;51.428;-1.994;2024-01-25T09:36:01;101720.16;;;9.71;100.00
66664;BME280;59683;51.428;-1.994;2024-01-25T09:38:27;101725.34;;;9.73;100.00
66664;BME280;59683;51.428;-1.994;2024-01-25T09:40:52;101706.66;;;9.76;100.00
66664;BME280;59683;51.428;-1.994;2024-01-25T09:43:18;101716.06;;;9.82;100.00
66664;BME280;59683;51.428;-1.994;2024-01-25T09:45:46;101709.53;;;9.87;100.00
66664;BME280;59683;51.428;-1.994;2024-01-25T09:48:14;101704.81;;;9.92;100.00
66664;BME280;59683;51.428;-1.994;2024-01-25T09:50:40;101686.97;;;9.96;100.00
66664;BME280;59683;51.428;-1.994;2024-01-25T09:53:06;101702.00;;;9.95;100.00
66664;BME280;59683;51.428;-1.994;2024-01-25T09:55:35;101699.94;;;10.01;100.00
66664;BME280;59683;51.428;-1.994;2024-01-25T09:58:04;101707.59;;;10.05;100.00
66664;BME280;59683;51.428;-1.994;2024-01-25T10:00:33;101706.47;;;10.09;100.00
66664;BME280;59683;51.428;-1.994;2024-01-25T10:02:58;101705.50;;;10.10;100.00
66664;BME280;59683;51.428;-1.994;2024-01-25T10:05:23;101693.91;;;10.13;100.00
66664;BME280;59683;51.428;-1.994;2024-01-25T10:07:49;101698.63;;;10.22;100.00
66664;BME280;59683;51.428;-1.994;2024-01-25T10:10:14;101697.59;;;10.25;100.00
66664;BME280;59683;51.428;-1.994;2024-01-25T10:12:42;101688.44;;;10.30;100.00
66664;BME280;59683;51.428;-1.994;2024-01-25T10:15:10;101694.22;;;10.37;100.00
66664;BME280;59683;51.428;-1.994;2024-01-25T10:17:36;101688.63;;;10.41;100.00
66664;BME280;59683;51.428;-1.994;2024-01-25T10:20:04;101694.53;;;10.47;100.00
66664;BME280;59683;51.428;-1.994;2024-01-25T10:22:32;101699.81;;;10.61;100.00
66664;BME280;59683;51.428;-1.994;2024-01-25T10:24:57;101697.59;;;10.67;100.00
66664;BME280;59683;51.428;-1.994;2024-01-25T10:27:23;101684.09;;;10.72;100.00
66664;BME280;59683;51.428;-1.994;2024-01-25T10:29:49;101685.38;;;10.79;100.00
66664;BME280;59683;51.428;-1.994;2024-01-25T10:32:16;101680.75;;;10.83;100.00
66664;BME280;59683;51.428;-1.994;2024-01-25T10:34:42;101685.06;;;10.98;100.00
66664;BME280;59683;51.428;-1.994;2024-01-25T10:37:13;101681.19;;;11.04;100.00
66664;BME280;59683;51.428;-1.994;2024-01-25T10:39:39;101670.47;;;11.05;100.00
66664;BME280;59683;51.428;-1.994;2024-01-25T10:42:06;101664.91;;;11.10;100.00
66664;BME280;59683;51.428;-1.994;2024-01-25T10:44:32;101657.09;;;11.21;100.00
66664;BME280;59683;51.428;-1.994;2024-01-25T10:46:57;101666.44;;;11.27;100.00
66664;BME280;59683;51.428;-1.994;2024-01-25T10:49:24;101661.13;;;11.27;100.00
66664;BME280;59683;51.428;-1.994;2024-01-25T10:51:49;101667.75;;;11.34;100.00
66664;BME280;59683;51.428;-1.994;2024-01-25T10:54:15;101669.47;;;11.48;100.00
66664;BME280;59683;51.428;-1.994;2024-01-25T10:56:42;101672.47;;;11.56;100.00
66664;BME280;59683;51.428;-1.994;2024-01-25T10:59:08;101664.72;;;11.65;100.00
66664;BME280;59683;51.428;-1.994;2024-01-25T11:01:36;101651.19;;;11.83;100.00
66664;BME280;59683;51.428;-1.994;2024-01-25T11:04:01;101653.97;;;11.94;100.00
66664;BME280;59683;51.428;-1.994;2024-01-25T11:06:27;101652.59;;;12.14;100.00
66664;BME280;59683;51.428;-1.994;2024-01-25T11:09:06;101651.00;;;12.24;100.00
66664;BME280;59683;51.428;-1.994;2024-01-25T11:11:32;101643.56;;;12.29;100.00
66664;BME280;59683;51.428;-1.994;2024-01-25T11:13:58;101625.91;;;12.54;100.00
66664;BME280;59683;51.428;-1.994;2024-01-25T11:16:31;101612.41;;;12.81;100.00
66664;BME280;59683;51.428;-1.994;2024-01-25T11:18:59;101602.34;;;12.97;100.00
66664;BME280;59683;51.428;-1.994;2024-01-25T11:21:43;101596.50;;;13.16;100.00
66664;BME280;59683;51.428;-1.994;2024-01-25T11:24:13;101592.41;;;13.36;100.00
66664;BME280;59683;51.428;-1.994;2024-01-25T11:26:40;101583.19;;;13.29;100.00
66664;BME280;59683;51.428;-1.994;2024-01-25T11:29:05;101588.09;;;13.22;100.00
66664;BME280;59683;51.428;-1.994;2024-01-25T11:31:31;101588.06;;;13.46;100.00
66664;BME280;59683;51.428;-1.994;2024-01-25T11:34:00;101580.25;;;13.67;100.00
66664;BME280;59683;51.428;-1.994;2024-01-25T11:36:26;101579.28;;;13.79;100.00
66664;BME280;59683;51.428;-1.994;2024-01-25T11:38:52;101571.88;;;13.49;100.00
66664;BME280;59683;51.428;-1.994;2024-01-25T11:41:17;101569.38;;;13.24;100.00
66664;BME280;59683;51.428;-1.994;2024-01-25T11:43:43;101570.19;;;13.13;100.00
66664;BME280;59683;51.428;-1.994;2024-01-25T11:46:08;101566.47;;;12.92;100.00
66664;BME280;59683;51.428;-1.994;2024-01-25T11:48:38;101572.13;;;12.87;100.00
66664;BME280;59683;51.428;-1.994;2024-01-25T11:51:04;101569.06;;;12.80;100.00
66664;BME280;59683;51.428;-1.994;2024-01-25T11:53:29;101564.13;;;12.63;100.00
66664;BME280;59683;51.428;-1.994;2024-01-25T11:55:55;101565.88;;;12.51;100.00
66664;BME280;59683;51.428;-1.994;2024-01-25T11:58:22;101559.66;;;12.39;100.00
66664;BME280;59683;51.428;-1.994;2024-01-25T12:00:47;101551.53;;;12.30;100.00
66664;BME280;59683;51.428;-1.994;2024-01-25T12:03:14;101554.97;;;12.43;100.00
66664;BME280;59683;51.428;-1.994;2024-01-25T12:05:39;101547.34;;;12.62;100.00
66664;BME280;59683;51.428;-1.994;2024-01-25T12:08:09;101539.56;;;12.72;100.00
66664;BME280;59683;51.428;-1.994;2024-01-25T12:10:34;101541.13;;;12.99;100.00
66664;BME280;59683;51.428;-1.994;2024-01-25T12:13:00;101529.81;;;13.19;100.00
66664;BME280;59683;51.428;-1.994;2024-01-25T12:15:25;101531.28;;;13.58;100.00
66664;BME280;59683;51.428;-1.994;2024-01-25T12:17:51;101513.50;;;14.15;100.00
66664;BME280;59683;51.428;-1.994;2024-01-25T12:20:16;101499.84;;;14.63;100.00
66664;BME280;59683;51.428;-1.994;2024-01-25T12:22:42;101493.34;;;14.56;100.00
66664;BME280;59683;51.428;-1.994;2024-01-25T12:25:09;101495.06;;;14.34;100.00
66664;BME280;59683;51.428;-1.994;2024-01-25T12:27:35;101500.19;;;14.15;100.00
66664;BME280;59683;51.428;-1.994;2024-01-25T12:30:02;101491.63;;;13.89;100.00